Apgar, Montana
Current Conditions -  °F | °C
As of 3:17 PM on Sunday 23 Nov 2014 (Local Time) from KGPI Reporting Station
Light Snow Light Snow  
Wind Chill: 25°   Ceiling: 1100
Heat Index: 33°   Visibility: 0.75mi
Dew Point: 32°   Wind: 10mph
Humidity: 96%   Direction: 160°SSE
Pressure: 29.94"   Gusts: NA
Location:  48.5033°N, 113.981°W
Report Text: KGPI 232217Z 16009KT 3/4SM -SN BR SCT008 OVC011 01/00 A2994 RMK AO2 P0001 T00060000
Loading
Personal Weather Stations






























Interactive Weather Map New forecast layout! Learn more

10-Day Weather Forecast

Advertisements
Track Severe Weather on mobile